sensor_id;sensor_type;location;lat;lon;timestamp;pressure;altitude;pressure_sealevel;temperature;humidity
35655;BME280;21773;50.010;19.972;2023-03-26T00:01:52;97811.47;;;13.70;42.77
35655;BME280;21773;50.010;19.972;2023-03-26T00:04:55;97812.03;;;13.67;42.81
35655;BME280;21773;50.010;19.972;2023-03-26T00:07:59;97818.47;;;13.45;43.55
35655;BME280;21773;50.010;19.972;2023-03-26T00:11:03;97810.06;;;13.47;43.36
35655;BME280;21773;50.010;19.972;2023-03-26T00:14:07;97782.94;;;13.27;43.81
35655;BME280;21773;50.010;19.972;2023-03-26T00:17:16;97814.44;;;13.58;43.81
35655;BME280;21773;50.010;19.972;2023-03-26T00:20:19;97808.75;;;13.60;44.46
35655;BME280;21773;50.010;19.972;2023-03-26T00:23:23;97821.47;;;13.64;44.51
35655;BME280;21773;50.010;19.972;2023-03-26T00:26:26;97808.50;;;13.61;44.55
35655;BME280;21773;50.010;19.972;2023-03-26T00:29:31;97805.53;;;13.63;44.47
35655;BME280;21773;50.010;19.972;2023-03-26T00:32:37;97800.91;;;13.63;44.87
35655;BME280;21773;50.010;19.972;2023-03-26T00:35:41;97803.63;;;13.58;44.63
35655;BME280;21773;50.010;19.972;2023-03-26T00:38:48;97798.16;;;13.48;45.37
35655;BME280;21773;50.010;19.972;2023-03-26T00:41:53;97798.69;;;13.50;45.18
35655;BME280;21773;50.010;19.972;2023-03-26T00:44:57;97783.84;;;13.58;45.02
35655;BME280;21773;50.010;19.972;2023-03-26T00:48:01;97791.69;;;13.59;44.75
35655;BME280;21773;50.010;19.972;2023-03-26T00:51:06;97793.56;;;13.59;45.01
35655;BME280;21773;50.010;19.972;2023-03-26T00:54:09;97790.59;;;13.50;45.12
35655;BME280;21773;50.010;19.972;2023-03-26T00:57:13;97790.56;;;13.45;45.36
35655;BME280;21773;50.010;19.972;2023-03-26T01:00:34;97787.31;;;13.43;45.35
35655;BME280;21773;50.010;19.972;2023-03-26T01:03:41;97783.25;;;13.40;45.14
35655;BME280;21773;50.010;19.972;2023-03-26T01:07:05;97781.13;;;13.53;45.07
35655;BME280;21773;50.010;19.972;2023-03-26T01:10:11;97775.16;;;13.61;44.81
35655;BME280;21773;50.010;19.972;2023-03-26T01:13:17;97774.88;;;13.47;45.02
35655;BME280;21773;50.010;19.972;2023-03-26T01:16:26;97773.00;;;13.48;45.00
35655;BME280;21773;50.010;19.972;2023-03-26T01:19:36;97771.13;;;13.53;44.69
35655;BME280;21773;50.010;19.972;2023-03-26T01:22:46;97776.00;;;13.61;44.39
35655;BME280;21773;50.010;19.972;2023-03-26T01:25:55;97770.03;;;13.64;44.36
35655;BME280;21773;50.010;19.972;2023-03-26T01:29:02;97773.03;;;13.68;44.18
35655;BME280;21773;50.010;19.972;2023-03-26T01:32:20;97775.47;;;13.74;44.18
35655;BME280;21773;50.010;19.972;2023-03-26T01:35:35;97785.22;;;13.80;44.17
35655;BME280;21773;50.010;19.972;2023-03-26T01:38:46;97796.88;;;13.71;44.27
35655;BME280;21773;50.010;19.972;2023-03-26T01:42:01;97823.34;;;13.59;46.23
35655;BME280;21773;50.010;19.972;2023-03-26T01:45:11;97817.59;;;13.30;49.33
35655;BME280;21773;50.010;19.972;2023-03-26T01:48:16;97791.59;;;13.19;49.98
35655;BME280;21773;50.010;19.972;2023-03-26T01:51:27;97779.88;;;13.08;50.59
35655;BME280;21773;50.010;19.972;2023-03-26T01:54:31;97762.19;;;12.90;51.37
35655;BME280;21773;50.010;19.972;2023-03-26T01:57:45;97766.75;;;12.80;51.02
35655;BME280;21773;50.010;19.972;2023-03-26T02:00:57;97768.31;;;12.71;52.56
35655;BME280;21773;50.010;19.972;2023-03-26T02:04:16;97764.81;;;12.70;52.56
35655;BME280;21773;50.010;19.972;2023-03-26T02:07:26;97764.28;;;12.73;52.80
35655;BME280;21773;50.010;19.972;2023-03-26T02:10:39;97761.84;;;12.77;52.65
35655;BME280;21773;50.010;19.972;2023-03-26T02:13:46;97759.19;;;12.82;52.95
35655;BME280;21773;50.010;19.972;2023-03-26T02:16:49;97757.00;;;12.79;53.12
35655;BME280;21773;50.010;19.972;2023-03-26T02:19:53;97745.66;;;12.82;52.84
35655;BME280;21773;50.010;19.972;2023-03-26T02:22:56;97751.03;;;12.77;52.99
35655;BME280;21773;50.010;19.972;2023-03-26T02:26:04;97753.75;;;12.77;53.11
35655;BME280;21773;50.010;19.972;2023-03-26T02:29:11;97757.28;;;12.82;53.05
35655;BME280;21773;50.010;19.972;2023-03-26T02:32:17;97757.84;;;12.84;53.29
35655;BME280;21773;50.010;19.972;2023-03-26T02:35:21;97758.34;;;12.76;53.90
35655;BME280;21773;50.010;19.972;2023-03-26T02:38:31;97761.81;;;12.72;53.94
35655;BME280;21773;50.010;19.972;2023-03-26T02:41:37;97757.78;;;12.69;53.95
35655;BME280;21773;50.010;19.972;2023-03-26T02:44:45;97766.41;;;12.71;53.57
35655;BME280;21773;50.010;19.972;2023-03-26T02:47:48;97758.06;;;12.73;53.94
35655;BME280;21773;50.010;19.972;2023-03-26T02:51:16;97761.81;;;12.72;53.68
35655;BME280;21773;50.010;19.972;2023-03-26T02:54:33;97756.19;;;12.78;53.74
35655;BME280;21773;50.010;19.972;2023-03-26T02:57:57;97755.69;;;12.86;53.02
35655;BME280;21773;50.010;19.972;2023-03-26T03:01:08;97757.63;;;12.96;53.24
35655;BME280;21773;50.010;19.972;2023-03-26T03:04:21;97749.00;;;12.99;52.77
35655;BME280;21773;50.010;19.972;2023-03-26T03:07:24;97751.97;;;13.02;52.69
35655;BME280;21773;50.010;19.972;2023-03-26T03:10:28;97754.69;;;13.02;52.76
35655;BME280;21773;50.010;19.972;2023-03-26T03:13:44;97759.03;;;13.09;52.20
35655;BME280;21773;50.010;19.972;2023-03-26T03:17:07;97744.19;;;13.11;51.93
35655;BME280;21773;50.010;19.972;2023-03-26T03:20:11;97749.53;;;13.06;52.08
35655;BME280;21773;50.010;19.972;2023-03-26T03:23:15;97746.00;;;13.06;51.59
35655;BME280;21773;50.010;19.972;2023-03-26T03:26:20;97745.75;;;13.02;51.53
35655;BME280;21773;50.010;19.972;2023-03-26T03:29:26;97729.22;;;12.93;51.34
35655;BME280;21773;50.010;19.972;2023-03-26T03:32:34;97744.69;;;13.08;50.97
35655;BME280;21773;50.010;19.972;2023-03-26T03:35:38;97737.38;;;13.03;51.17
35655;BME280;21773;50.010;19.972;2023-03-26T03:38:43;97743.66;;;13.14;50.93
35655;BME280;21773;50.010;19.972;2023-03-26T03:41:51;97739.59;;;13.17;50.57
35655;BME280;21773;50.010;19.972;2023-03-26T03:44:54;97750.16;;;13.18;50.75
35655;BME280;21773;50.010;19.972;2023-03-26T03:48:37;97757.22;;;13.19;50.09
35655;BME280;21773;50.010;19.972;2023-03-26T03:51:42;97752.91;;;13.23;49.84
35655;BME280;21773;50.010;19.972;2023-03-26T03:55:14;97754.81;;;13.28;49.74
35655;BME280;21773;50.010;19.972;2023-03-26T03:58:25;97757.22;;;13.29;49.50
35655;BME280;21773;50.010;19.972;2023-03-26T04:01:35;97758.34;;;13.33;49.24
35655;BME280;21773;50.010;19.972;2023-03-26T04:04:46;97753.44;;;13.35;48.89
35655;BME280;21773;50.010;19.972;2023-03-26T04:07:54;97755.91;;;13.42;48.45
35655;BME280;21773;50.010;19.972;2023-03-26T04:11:00;97748.59;;;13.37;48.07
35655;BME280;21773;50.010;19.972;2023-03-26T04:14:22;97756.44;;;13.44;47.99
35655;BME280;21773;50.010;19.972;2023-03-26T04:17:35;97760.53;;;13.52;47.71
35655;BME280;21773;50.010;19.972;2023-03-26T04:20:47;97739.16;;;13.60;47.75
35655;BME280;21773;50.010;19.972;2023-03-26T04:23:58;97744.31;;;13.62;47.90
35655;BME280;21773;50.010;19.972;2023-03-26T04:27:26;97734.28;;;13.62;48.04
35655;BME280;21773;50.010;19.972;2023-03-26T04:30:42;97739.41;;;13.64;48.17
35655;BME280;21773;50.010;19.972;2023-03-26T04:34:07;97733.22;;;13.63;47.83
35655;BME280;21773;50.010;19.972;2023-03-26T04:37:31;97730.22;;;13.70;47.66
35655;BME280;21773;50.010;19.972;2023-03-26T04:40:43;97726.44;;;13.71;47.76
35655;BME280;21773;50.010;19.972;2023-03-26T04:44:07;97719.13;;;13.71;47.94
35655;BME280;21773;50.010;19.972;2023-03-26T04:47:10;97718.06;;;13.72;47.74
35655;BME280;21773;50.010;19.972;2023-03-26T04:50:19;97724.00;;;13.74;47.86
35655;BME280;21773;50.010;19.972;2023-03-26T04:53:25;97722.66;;;13.77;47.54
35655;BME280;21773;50.010;19.972;2023-03-26T04:56:41;97722.91;;;13.75;47.28
35655;BME280;21773;50.010;19.972;2023-03-26T05:00:03;97725.63;;;13.75;47.44
35655;BME280;21773;50.010;19.972;2023-03-26T05:03:19;97715.63;;;13.76;47.32
35655;BME280;21773;50.010;19.972;2023-03-26T05:06:24;97712.34;;;13.79;47.19
35655;BME280;21773;50.010;19.972;2023-03-26T05:09:30;97722.38;;;13.78;47.19
35655;BME280;21773;50.010;19.972;2023-03-26T05:12:45;97719.41;;;13.70;47.23
35655;BME280;21773;50.010;19.972;2023-03-26T05:15:55;97725.63;;;13.65;47.29
35655;BME280;21773;50.010;19.972;2023-03-26T05:19:14;97719.94;;;13.62;47.12
35655;BME280;21773;50.010;19.972;2023-03-26T05:22:17;97724.28;;;13.63;47.63
35655;BME280;21773;50.010;19.972;2023-03-26T05:25:40;97725.34;;;13.62;47.50
35655;BME280;21773;50.010;19.972;2023-03-26T05:28:53;97706.41;;;13.57;47.69
35655;BME280;21773;50.010;19.972;2023-03-26T05:32:00;97716.16;;;13.58;47.97
35655;BME280;21773;50.010;19.972;2023-03-26T05:35:04;97721.28;;;13.54;47.98
35655;BME280;21773;50.010;19.972;2023-03-26T05:38:08;97720.47;;;13.59;47.81
35655;BME280;21773;50.010;19.972;2023-03-26T05:41:13;97715.84;;;13.59;48.09
35655;BME280;21773;50.010;19.972;2023-03-26T05:44:17;97712.88;;;13.56;48.08
35655;BME280;21773;50.010;19.972;2023-03-26T05:47:21;97716.41;;;13.56;48.02
35655;BME280;21773;50.010;19.972;2023-03-26T05:50:24;97714.53;;;13.72;47.86
35655;BME280;21773;50.010;19.972;2023-03-26T05:53:33;97724.28;;;13.68;47.97
35655;BME280;21773;50.010;19.972;2023-03-26T05:56:56;97719.41;;;13.90;47.96
35655;BME280;21773;50.010;19.972;2023-03-26T06:00:18;97725.09;;;14.09;47.16
35655;BME280;21773;50.010;19.972;2023-03-26T06:03:25;97720.72;;;14.23;46.92
35655;BME280;21773;50.010;19.972;2023-03-26T06:06:29;97725.88;;;14.24;46.64
35655;BME280;21773;50.010;19.972;2023-03-26T06:09:34;97718.00;;;14.33;46.24
35655;BME280;21773;50.010;19.972;2023-03-26T06:12:40;97725.31;;;14.48;46.33
35655;BME280;21773;50.010;19.972;2023-03-26T06:15:44;97712.81;;;14.57;46.44
35655;BME280;21773;50.010;19.972;2023-03-26T06:18:55;97723.34;;;14.79;45.77
35655;BME280;21773;50.010;19.972;2023-03-26T06:22:25;97723.25;;;14.99;44.92
35655;BME280;21773;50.010;19.972;2023-03-26T06:26:04;97722.69;;;15.07;44.56
35655;BME280;21773;50.010;19.972;2023-03-26T06:29:15;97719.63;;;15.24;44.13
35655;BME280;21773;50.010;19.972;2023-03-26T06:32:39;97733.47;;;15.22;43.75
35655;BME280;21773;50.010;19.972;2023-03-26T06:35:51;97725.56;;;15.26;43.46
35655;BME280;21773;50.010;19.972;2023-03-26T06:38:54;97729.66;;;15.23;43.67
35655;BME280;21773;50.010;19.972;2023-03-26T06:41:58;97722.63;;;15.17;43.18
35655;BME280;21773;50.010;19.972;2023-03-26T06:45:16;97728.88;;;15.17;42.66
35655;BME280;21773;50.010;19.972;2023-03-26T06:48:45;97723.50;;;15.02;42.59
35655;BME280;21773;50.010;19.972;2023-03-26T06:52:07;97729.16;;;15.11;42.45
35655;BME280;21773;50.010;19.972;2023-03-26T06:55:13;97724.38;;;14.93;42.40
35655;BME280;21773;50.010;19.972;2023-03-26T06:58:37;97735.22;;;14.93;42.49
35655;BME280;21773;50.010;19.972;2023-03-26T07:02:14;97743.06;;;15.04;42.38
35655;BME280;21773;50.010;19.972;2023-03-26T07:05:37;97737.91;;;14.98;42.36
35655;BME280;21773;50.010;19.972;2023-03-26T07:09:03;97731.16;;;14.95;43.04
35655;BME280;21773;50.010;19.972;2023-03-26T07:12:26;97729.16;;;15.11;42.80
35655;BME280;21773;50.010;19.972;2023-03-26T07:15:49;97725.09;;;15.13;42.05
35655;BME280;21773;50.010;19.972;2023-03-26T07:19:17;97727.13;;;15.37;41.90
35655;BME280;21773;50.010;19.972;2023-03-26T07:22:23;97742.81;;;15.50;41.72
35655;BME280;21773;50.010;19.972;2023-03-26T07:25:42;97731.09;;;15.59;41.46
35655;BME280;21773;50.010;19.972;2023-03-26T07:28:50;97738.94;;;15.66;40.92
35655;BME280;21773;50.010;19.972;2023-03-26T07:32:38;97725.28;;;15.76;41.25
35655;BME280;21773;50.010;19.972;2023-03-26T07:36:20;97727.69;;;15.83;40.82
35655;BME280;21773;50.010;19.972;2023-03-26T07:39:50;97721.41;;;16.45;39.79
35655;BME280;21773;50.010;19.972;2023-03-26T07:43:12;97721.53;;;17.49;38.16
35655;BME280;21773;50.010;19.972;2023-03-26T07:46:50;97716.16;;;18.13;36.50
35655;BME280;21773;50.010;19.972;2023-03-26T07:50:33;97718.09;;;18.86;35.38
35655;BME280;21773;50.010;19.972;2023-03-26T07:53:47;97710.78;;;19.36;34.44
35655;BME280;21773;50.010;19.972;2023-03-26T07:57:17;97709.63;;;19.65;33.56
35655;BME280;21773;50.010;19.972;2023-03-26T08:00:40;97705.50;;;20.12;32.35
35655;BME280;21773;50.010;19.972;2023-03-26T08:08:07;97710.50;;;19.38;31.95
35655;BME280;21773;50.010;19.972;2023-03-26T08:11:33;97708.97;;;19.59;32.08
35655;BME280;21773;50.010;19.972;2023-03-26T08:14:47;97701.91;;;19.17;32.93
35655;BME280;21773;50.010;19.972;2023-03-26T08:18:00;97697.69;;;19.61;32.64
35655;BME280;21773;50.010;19.972;2023-03-26T08:21:09;97694.66;;;19.84;31.76
35655;BME280;21773;50.010;19.972;2023-03-26T08:24:20;97710.09;;;20.47;30.79
35655;BME280;21773;50.010;19.972;2023-03-26T08:27:35;97693.19;;;20.93;30.79
35655;BME280;21773;50.010;19.972;2023-03-26T08:30:40;97710.06;;;20.87;30.01
35655;BME280;21773;50.010;19.972;2023-03-26T08:33:43;97705.50;;;20.12;30.43
35655;BME280;21773;50.010;19.972;2023-03-26T08:36:47;97708.31;;;19.62;31.45
35655;BME280;21773;50.010;19.972;2023-03-26T08:39:50;97703.50;;;19.32;32.83
35655;BME280;21773;50.010;19.972;2023-03-26T08:43:34;97709.81;;;18.91;32.49
35655;BME280;21773;50.010;19.972;2023-03-26T08:47:20;97708.84;;;17.95;33.23
35655;BME280;21773;50.010;19.972;2023-03-26T08:58:25;97694.22;;;17.72;34.22
35655;BME280;21773;50.010;19.972;2023-03-26T09:02:00;97703.19;;;17.92;34.00
35655;BME280;21773;50.010;19.972;2023-03-26T09:05:50;97694.25;;;19.06;32.30
35655;BME280;21773;50.010;19.972;2023-03-26T09:09:24;97686.34;;;19.67;30.56
35655;BME280;21773;50.010;19.972;2023-03-26T09:13:13;97693.31;;;20.88;29.45
35655;BME280;21773;50.010;19.972;2023-03-26T09:20:23;97687.19;;;22.80;25.98
35655;BME280;21773;50.010;19.972;2023-03-26T09:27:34;97688.91;;;23.73;23.90
35655;BME280;21773;50.010;19.972;2023-03-26T09:31:13;97692.38;;;24.24;24.12
35655;BME280;21773;50.010;19.972;2023-03-26T09:34:45;97683.50;;;24.18;23.89
35655;BME280;21773;50.010;19.972;2023-03-26T09:38:10;97682.06;;;23.79;24.55
35655;BME280;21773;50.010;19.972;2023-03-26T09:41:16;97687.75;;;23.24;24.36
35655;BME280;21773;50.010;19.972;2023-03-26T09:48:43;97680.75;;;22.04;26.89
35655;BME280;21773;50.010;19.972;2023-03-26T09:52:05;97686.06;;;21.40;27.31
35655;BME280;21773;50.010;19.972;2023-03-26T09:55:22;97689.75;;;20.79;27.67
35655;BME280;21773;50.010;19.972;2023-03-26T10:02:44;97683.69;;;19.98;29.80
35655;BME280;21773;50.010;19.972;2023-03-26T10:05:58;97672.19;;;19.87;30.06
35655;BME280;21773;50.010;19.972;2023-03-26T10:09:15;97673.59;;;19.85;30.21
35655;BME280;21773;50.010;19.972;2023-03-26T10:12:32;97651.44;;;19.51;30.40
35655;BME280;21773;50.010;19.972;2023-03-26T10:15:54;97667.13;;;19.59;29.96
35655;BME280;21773;50.010;19.972;2023-03-26T10:19:16;97672.50;;;20.79;28.39
35655;BME280;21773;50.010;19.972;2023-03-26T10:22:34;97660.34;;;20.23;28.93
35655;BME280;21773;50.010;19.972;2023-03-26T10:26:03;97661.19;;;20.10;29.40
35655;BME280;21773;50.010;19.972;2023-03-26T10:29:19;97649.56;;;19.73;29.11
35655;BME280;21773;50.010;19.972;2023-03-26T10:32:35;97643.34;;;19.59;29.73
35655;BME280;21773;50.010;19.972;2023-03-26T10:35:58;97633.47;;;18.86;30.32
35655;BME280;21773;50.010;19.972;2023-03-26T10:39:17;97647.44;;;18.57;30.83
35655;BME280;21773;50.010;19.972;2023-03-26T10:50:31;97638.31;;;18.35;31.83
35655;BME280;21773;50.010;19.972;2023-03-26T10:53:42;97642.41;;;18.05;31.98
35655;BME280;21773;50.010;19.972;2023-03-26T10:56:50;97616.84;;;18.01;32.21
35655;BME280;21773;50.010;19.972;2023-03-26T10:59:54;97637.22;;;18.36;31.84
35655;BME280;21773;50.010;19.972;2023-03-26T11:03:16;97631.31;;;18.42;31.18
35655;BME280;21773;50.010;19.972;2023-03-26T11:06:36;97622.84;;;18.16;31.21
35655;BME280;21773;50.010;19.972;2023-03-26T11:09:48;97641.81;;;18.08;31.12
35655;BME280;21773;50.010;19.972;2023-03-26T11:13:01;97634.09;;;17.83;31.63
35655;BME280;21773;50.010;19.972;2023-03-26T11:16:14;97632.53;;;17.77;31.67
35655;BME280;21773;50.010;19.972;2023-03-26T11:19:24;97620.63;;;17.72;31.54
35655;BME280;21773;50.010;19.972;2023-03-26T11:22:42;97627.53;;;18.71;30.55
35655;BME280;21773;50.010;19.972;2023-03-26T11:26:07;97625.41;;;18.81;30.61
35655;BME280;21773;50.010;19.972;2023-03-26T11:29:31;97616.47;;;19.39;29.66
35655;BME280;21773;50.010;19.972;2023-03-26T11:32:43;97615.53;;;19.43;29.65
35655;BME280;21773;50.010;19.972;2023-03-26T11:35:49;97615.66;;;19.38;29.54
35655;BME280;21773;50.010;19.972;2023-03-26T11:38:57;97604.59;;;19.43;29.48
35655;BME280;21773;50.010;19.972;2023-03-26T11:42:07;97605.13;;;19.32;29.57
35655;BME280;21773;50.010;19.972;2023-03-26T11:45:19;97603.88;;;19.16;29.80
35655;BME280;21773;50.010;19.972;2023-03-26T11:48:27;97610.81;;;18.99;29.80
35655;BME280;21773;50.010;19.972;2023-03-26T11:51:34;97605.19;;;18.69;29.59
35655;BME280;21773;50.010;19.972;2023-03-26T11:54:39;97581.13;;;18.71;30.04
35655;BME280;21773;50.010;19.972;2023-03-26T11:57:51;97593.50;;;19.26;29.39
35655;BME280;21773;50.010;19.972;2023-03-26T12:00:55;97589.69;;;19.72;28.99
35655;BME280;21773;50.010;19.972;2023-03-26T12:04:05;97592.94;;;20.05;28.60
35655;BME280;21773;50.010;19.972;2023-03-26T12:07:16;97538.09;;;20.18;28.23
35655;BME280;21773;50.010;19.972;2023-03-26T12:10:26;97585.44;;;20.58;28.26
35655;BME280;21773;50.010;19.972;2023-03-26T12:13:34;97592.50;;;20.42;28.24
35655;BME280;21773;50.010;19.972;2023-03-26T12:16:56;97592.66;;;20.37;28.83
35655;BME280;21773;50.010;19.972;2023-03-26T12:20:00;97577.03;;;20.07;28.14
35655;BME280;21773;50.010;19.972;2023-03-26T12:23:42;97580.63;;;19.63;28.55
35655;BME280;21773;50.010;19.972;2023-03-26T12:26:55;97577.88;;;19.40;29.27
35655;BME280;21773;50.010;19.972;2023-03-26T12:30:10;97569.16;;;19.16;29.39
35655;BME280;21773;50.010;19.972;2023-03-26T12:33:21;97566.25;;;19.13;30.07
35655;BME280;21773;50.010;19.972;2023-03-26T12:36:28;97560.75;;;18.90;30.26
35655;BME280;21773;50.010;19.972;2023-03-26T12:39:37;97573.94;;;18.75;30.67
35655;BME280;21773;50.010;19.972;2023-03-26T12:43:04;97537.97;;;18.59;30.81
35655;BME280;21773;50.010;19.972;2023-03-26T12:46:30;97562.41;;;18.50;31.51
35655;BME280;21773;50.010;19.972;2023-03-26T13:00:37;97548.28;;;18.35;32.24
35655;BME280;21773;50.010;19.972;2023-03-26T13:04:05;97548.56;;;18.33;31.56
35655;BME280;21773;50.010;19.972;2023-03-26T13:07:17;97540.19;;;18.30;31.33
35655;BME280;21773;50.010;19.972;2023-03-26T13:14:13;97523.41;;;18.50;31.37
35655;BME280;21773;50.010;19.972;2023-03-26T13:17:25;97517.44;;;18.62;31.42
35655;BME280;21773;50.010;19.972;2023-03-26T13:20:42;97525.25;;;18.54;31.69
35655;BME280;21773;50.010;19.972;2023-03-26T13:23:54;97514.81;;;18.43;31.89
35655;BME280;21773;50.010;19.972;2023-03-26T13:27:15;97514.69;;;18.48;31.65
35655;BME280;21773;50.010;19.972;2023-03-26T13:30:30;97499.47;;;18.47;31.01
35655;BME280;21773;50.010;19.972;2023-03-26T13:33:44;97500.34;;;18.70;31.15
35655;BME280;21773;50.010;19.972;2023-03-26T13:37:02;97493.53;;;18.81;31.14
35655;BME280;21773;50.010;19.972;2023-03-26T13:40:16;97488.63;;;18.91;30.90
35655;BME280;21773;50.010;19.972;2023-03-26T13:43:32;97496.28;;;18.81;29.61
35655;BME280;21773;50.010;19.972;2023-03-26T13:46:41;97491.88;;;18.57;29.66
35655;BME280;21773;50.010;19.972;2023-03-26T13:49:49;97486.63;;;18.61;30.23
35655;BME280;21773;50.010;19.972;2023-03-26T13:52:56;97495.63;;;18.62;30.51
35655;BME280;21773;50.010;19.972;2023-03-26T13:56:01;97479.66;;;18.91;29.95
35655;BME280;21773;50.010;19.972;2023-03-26T13:59:09;97479.06;;;19.47;29.90
35655;BME280;21773;50.010;19.972;2023-03-26T14:02:32;97478.47;;;19.89;29.28
35655;BME280;21773;50.010;19.972;2023-03-26T14:05:43;97479.69;;;20.14;28.56
35655;BME280;21773;50.010;19.972;2023-03-26T14:08:51;97489.47;;;19.98;28.12
35655;BME280;21773;50.010;19.972;2023-03-26T14:12:20;97481.31;;;19.76;28.75
35655;BME280;21773;50.010;19.972;2023-03-26T14:15:29;97482.38;;;19.66;29.22
35655;BME280;21773;50.010;19.972;2023-03-26T14:18:37;97479.44;;;19.54;29.16
35655;BME280;21773;50.010;19.972;2023-03-26T14:21:56;97479.06;;;19.47;29.53
35655;BME280;21773;50.010;19.972;2023-03-26T14:25:18;97471.91;;;19.37;29.92
35655;BME280;21773;50.010;19.972;2023-03-26T14:28:50;97471.28;;;19.40;29.99
35655;BME280;21773;50.010;19.972;2023-03-26T14:32:18;97470.69;;;19.21;30.01
35655;BME280;21773;50.010;19.972;2023-03-26T14:35:34;97473.06;;;19.14;29.59
35655;BME280;21773;50.010;19.972;2023-03-26T14:38:59;97472.38;;;19.09;30.19
35655;BME280;21773;50.010;19.972;2023-03-26T14:42:13;97473.44;;;18.99;29.95
35655;BME280;21773;50.010;19.972;2023-03-26T14:45:47;97467.81;;;18.82;30.09
35655;BME280;21773;50.010;19.972;2023-03-26T14:52:30;97472.53;;;18.68;30.65
35655;BME280;21773;50.010;19.972;2023-03-26T14:55:54;97470.72;;;18.49;31.00
35655;BME280;21773;50.010;19.972;2023-03-26T14:59:36;97463.59;;;18.40;30.97
35655;BME280;21773;50.010;19.972;2023-03-26T15:03:20;97461.25;;;18.47;31.19
35655;BME280;21773;50.010;19.972;2023-03-26T15:11:04;97458.53;;;18.33;31.60
35655;BME280;21773;50.010;19.972;2023-03-26T15:22:02;97453.50;;;18.27;31.19
35655;BME280;21773;50.010;19.972;2023-03-26T15:29:03;97434.94;;;18.15;31.44
35655;BME280;21773;50.010;19.972;2023-03-26T15:36:15;97442.50;;;18.32;31.12
35655;BME280;21773;50.010;19.972;2023-03-26T15:39:38;97441.34;;;18.33;30.52
35655;BME280;21773;50.010;19.972;2023-03-26T15:43:07;97427.56;;;18.15;30.98
35655;BME280;21773;50.010;19.972;2023-03-26T15:46:51;97429.59;;;18.10;30.97
35655;BME280;21773;50.010;19.972;2023-03-26T15:49:52;97434.63;;;18.16;31.90
35655;BME280;21773;50.010;19.972;2023-03-26T15:53:08;97433.53;;;18.17;30.99
35655;BME280;21773;50.010;19.972;2023-03-26T16:10:09;97419.81;;;17.95;30.11
35655;BME280;21773;50.010;19.972;2023-03-26T16:13:28;97407.28;;;17.94;30.12
35655;BME280;21773;50.010;19.972;2023-03-26T16:16:56;97410.91;;;18.03;30.11
35655;BME280;21773;50.010;19.972;2023-03-26T16:20:18;97410.72;;;18.00;30.22
35655;BME280;21773;50.010;19.972;2023-03-26T16:23:34;97402.03;;;17.84;30.39
35655;BME280;21773;50.010;19.972;2023-03-26T16:30:27;97403.47;;;17.82;30.53
35655;BME280;21773;50.010;19.972;2023-03-26T16:33:35;97403.56;;;17.77;30.58
35655;BME280;21773;50.010;19.972;2023-03-26T16:36:41;97397.31;;;17.76;30.60
35655;BME280;21773;50.010;19.972;2023-03-26T16:39:45;97406.22;;;17.68;30.46
35655;BME280;21773;50.010;19.972;2023-03-26T16:42:54;97394.41;;;17.59;30.86
35655;BME280;21773;50.010;19.972;2023-03-26T16:46:08;97403.94;;;17.56;30.93
35655;BME280;21773;50.010;19.972;2023-03-26T16:49:27;97414.75;;;17.48;31.04
35655;BME280;21773;50.010;19.972;2023-03-26T16:52:48;97404.34;;;17.36;31.36
35655;BME280;21773;50.010;19.972;2023-03-26T16:55:57;97401.50;;;17.27;31.47
35655;BME280;21773;50.010;19.972;2023-03-26T16:59:07;97410.28;;;17.24;31.62
35655;BME280;21773;50.010;19.972;2023-03-26T17:02:20;97406.84;;;17.19;31.91
35655;BME280;21773;50.010;19.972;2023-03-26T17:05:34;97399.34;;;17.11;32.06
35655;BME280;21773;50.010;19.972;2023-03-26T17:08:45;97402.69;;;17.08;32.11
35655;BME280;21773;50.010;19.972;2023-03-26T17:11:57;97398.13;;;17.03;32.05
35655;BME280;21773;50.010;19.972;2023-03-26T17:15:23;97403.16;;;16.96;32.28
35655;BME280;21773;50.010;19.972;2023-03-26T17:18:43;97397.50;;;16.93;32.33
35655;BME280;21773;50.010;19.972;2023-03-26T17:21:53;97402.44;;;16.91;32.51
35655;BME280;21773;50.010;19.972;2023-03-26T17:25:04;97405.25;;;16.85;32.66
35655;BME280;21773;50.010;19.972;2023-03-26T17:28:48;97396.94;;;16.77;32.59
35655;BME280;21773;50.010;19.972;2023-03-26T17:32:03;97398.16;;;16.71;32.82
35655;BME280;21773;50.010;19.972;2023-03-26T17:35:10;97399.91;;;16.62;32.87
35655;BME280;21773;50.010;19.972;2023-03-26T17:42:16;97398.81;;;16.44;32.96
35655;BME280;21773;50.010;19.972;2023-03-26T17:45:21;97398.28;;;16.42;33.23
35655;BME280;21773;50.010;19.972;2023-03-26T17:48:35;97395.94;;;16.35;33.37
35655;BME280;21773;50.010;19.972;2023-03-26T17:51:47;97402.84;;;16.28;33.36
35655;BME280;21773;50.010;19.972;2023-03-26T17:54:54;97390.00;;;16.15;33.57
35655;BME280;21773;50.010;19.972;2023-03-26T17:58:00;97406.03;;;16.16;33.68
35655;BME280;21773;50.010;19.972;2023-03-26T18:01:15;97397.41;;;16.09;33.77
35655;BME280;21773;50.010;19.972;2023-03-26T18:04:28;97399.38;;;16.03;33.60
35655;BME280;21773;50.010;19.972;2023-03-26T18:08:07;97398.97;;;15.96;33.64
35655;BME280;21773;50.010;19.972;2023-03-26T18:11:33;97406.72;;;16.03;33.51
35655;BME280;21773;50.010;19.972;2023-03-26T18:15:06;97407.53;;;16.03;33.48
35655;BME280;21773;50.010;19.972;2023-03-26T18:18:16;97406.44;;;16.04;33.51
35655;BME280;21773;50.010;19.972;2023-03-26T18:21:28;97404.81;;;16.03;33.56
35655;BME280;21773;50.010;19.972;2023-03-26T18:24:37;97403.44;;;16.06;33.58
35655;BME280;21773;50.010;19.972;2023-03-26T18:27:41;97399.63;;;16.07;33.76
35655;BME280;21773;50.010;19.972;2023-03-26T18:30:46;97387.78;;;15.98;33.89
35655;BME280;21773;50.010;19.972;2023-03-26T18:33:54;97389.63;;;16.02;33.86